Hamburg Helmut Schmidt Airport

EDDH · Free and Hanseatic City of Hamburg, Germany

October 4, 2022

Time Code Weather Temp. Visibility Ceiling Wind METAR/SPECI
14:50
V
17 °C 10 km+ - 220° 220° 14 kt METAR EDDH 041250Z AUTO 22014KT 9999 SCT031 17/11 Q1019 NOSIG
14:20
V
17 °C 10 km+ - 210° 210° 12 kt METAR EDDH 041220Z AUTO 21012KT 9999 SCT029 17/11 Q1019 NOSIG
13:50
V
17 °C 10 km+ - 210° 210° 12 kt METAR EDDH 041150Z AUTO 21012KT 170V230 9999 SCT026 17/11 Q1019 NOSIG
13:20
V
17 °C 10 km+ - 200° 200° 11 kt METAR EDDH 041120Z AUTO 20011KT 9999 FEW023 17/11 Q1020 NOSIG
12:50
V
16 °C 10 km+ - 220° 220° 9 kt METAR EDDH 041050Z AUTO 22009KT CAVOK 16/12 Q1020 NOSIG
12:20
V
15 °C 10 km+ - 220° 220° 8 kt METAR EDDH 041020Z AUTO 22008KT CAVOK 15/11 Q1020 NOSIG
11:50
V
14 °C 10 km+ - 210° 210° 8 kt METAR EDDH 040950Z AUTO 21008KT CAVOK 14/11 Q1020 NOSIG
11:20
V
14 °C 10 km+ - 220° 220° 7 kt METAR EDDH 040920Z AUTO 22007KT CAVOK 14/11 Q1020 NOSIG
10:50
V
13 °C 10 km+ - 220° 220° 6 kt METAR EDDH 040850Z AUTO 22006KT CAVOK 13/11 Q1020 NOSIG
10:20
V
13 °C 10 km+ - 220° 220° 5 kt METAR EDDH 040820Z AUTO 22005KT CAVOK 13/11 Q1021 NOSIG
09:50
V
12 °C 10 km+ - 220° 220° 6 kt METAR EDDH 040750Z AUTO 22006KT CAVOK 12/11 Q1021 NOSIG
09:20
V
12 °C 10 km+ - 230° 230° 7 kt METAR EDDH 040720Z AUTO 23007KT CAVOK 12/10 Q1020 NOSIG
08:50
V
11 °C 10 km+ - 220° 220° 5 kt METAR EDDH 040650Z AUTO 22005KT 9999 FEW037 11/10 Q1020 NOSIG
08:20
V
10 °C 10 km+ 4,000 ft 220° 220° 4 kt METAR EDDH 040620Z AUTO 22004KT 9999 BKN040 10/10 Q1020 NOSIG
07:50
V
10 °C 10 km+ - 220° 220° 4 kt METAR EDDH 040550Z AUTO 22004KT 9999 FEW042 10/09 Q1020 NOSIG
07:20
V
10 °C 10 km+ - 240° 240° 3 kt METAR EDDH 040520Z AUTO 24003KT 9999 FEW028 10/09 Q1020 NOSIG
06:50
V
10 °C 10 km+ - Var Var 2 kt METAR EDDH 040450Z AUTO VRB02KT 9999 FEW033 10/09 Q1020 NOSIG
06:20
V
10 °C 10 km+ - 230° 230° 3 kt METAR EDDH 040420Z AUTO 23003KT 190V260 CAVOK 10/09 Q1021 NOSIG
05:50
V
10 °C 10 km+ - 230° 230° 3 kt METAR EDDH 040350Z AUTO 23003KT CAVOK 10/09 Q1021 NOSIG
05:20
V
10 °C 10 km+ - 220° 220° 3 kt METAR EDDH 040320Z AUTO 22003KT CAVOK 10/09 Q1021 NOSIG
04:50
V
9 °C 10 km+ - 210° 210° 4 kt METAR EDDH 040250Z AUTO 21004KT CAVOK 09/09 Q1021 TEMPO 1200 BCFG
04:20
L
9 °C 550 m - 220° 220° 3 kt METAR EDDH 040220Z AUTO 22003KT 170V240 9999 0550 R23/P2000N R15/1900U BCFG NSC 09/09 Q1021 TEMPO 1200 BCFG
03:50
L
9 °C 650 m - 220° 220° 2 kt METAR EDDH 040150Z AUTO 22002KT 8000 0650 R23/P2000N R15/0900D BCFG NSC 09/09 Q1021 TEMPO 1200 BCFG
03:20
L
9 °C 650 m - 200° 200° 2 kt METAR EDDH 040120Z AUTO 20002KT 3200 0650 R23/P2000N R15/1100D BCFG NSC 09/09 Q1022 TEMPO 1200 BCFG
02:50
V
9 °C 10 km+ - 200° 200° 2 kt METAR EDDH 040050Z AUTO 20002KT CAVOK 09/09 Q1022 TEMPO 1200 BCFG
02:20
I
10 °C 1.5 km - Var Var 1 kt METAR EDDH 040020Z AUTO VRB01KT 9999 1500 BR NSC 10/10 Q1022 NOSIG
01:50
V
11 °C 10 km+ - 250° 250° 3 kt METAR EDDH 032350Z AUTO 25003KT CAVOK 11/10 Q1022 TEMPO BKN012
01:20
V
11 °C 10 km+ - 260° 260° 3 kt METAR EDDH 032320Z AUTO 26003KT 210V010 9999 FEW013 11/11 Q1022 TEMPO BKN012
00:50
M
11 °C 10 km+ 1,500 ft Var Var 2 kt METAR EDDH 032250Z AUTO VRB02KT 9999 BKN015 11/11 Q1022 TEMPO BKN012
00:20
L
11 °C 650 m - Var Var 2 kt METAR EDDH 032220Z AUTO VRB02KT 9999 0650 R23/P2000N R15/1100D BCFG SCT017 11/11 Q1022 TEMPO 1200 BCFG

October 3, 2022

Time Code Weather Temp. Visibility Ceiling Wind METAR/SPECI
23:50
V
11 °C 10 km+ - 270° 270° 3 kt METAR EDDH 032150Z AUTO 27003KT 9999 FEW018 11/11 Q1023 TEMPO 2500 BCFG
23:20
L
11 °C 900 m - 270° 270° 2 kt METAR EDDH 032120Z AUTO 27002KT 1900 0900 R23/1900N R15/1000U BCFG NSC 11/11 Q1023 TEMPO 0700 FG
22:50
L
11 °C 600 m - 250° 250° 2 kt METAR EDDH 032050Z AUTO 25002KT 9999 0600 R23/P2000N R15/0900D BCFG NSC 11/11 Q1023 TEMPO 1200 BCFG
22:20
V
12 °C 10 km+ - 280° 280° 3 kt METAR EDDH 032020Z AUTO 28003KT 9999 FEW023 12/11 Q1023 NOSIG
21:50
M
12 °C 10 km+ 2,100 ft 280° 280° 5 kt METAR EDDH 031950Z AUTO 28005KT 9999 BKN021 12/11 Q1023 NOSIG
21:20
V
12 °C 10 km+ - 290° 290° 6 kt METAR EDDH 031920Z AUTO 29006KT CAVOK 12/11 Q1023 NOSIG
20:50
V
13 °C 10 km+ - 280° 280° 7 kt METAR EDDH 031850Z AUTO 28007KT CAVOK 13/11 Q1023 NOSIG
20:20
V
13 °C 10 km+ - 280° 280° 7 kt METAR EDDH 031820Z AUTO 28007KT CAVOK 13/12 Q1023 NOSIG
19:50
V
13 °C 10 km+ - 280° 280° 6 kt METAR EDDH 031750Z AUTO 28006KT 9999 FEW016 13/12 Q1023 NOSIG
19:20
V
14 °C 10 km+ - 290° 290° 6 kt METAR EDDH 031720Z AUTO 29006KT 9999 FEW017 14/12 Q1023 NOSIG
18:50
V
14 °C 10 km+ - 290° 290° 8 kt METAR EDDH 031650Z AUTO 29008KT 9999 FEW017 14/12 Q1023 NOSIG
18:20
V
15 °C 10 km+ - 290° 290° 10 kt METAR EDDH 031620Z AUTO 29010KT 9999 FEW020 15/11 Q1023 NOSIG
17:50
V
15 °C 10 km+ - 290° 290° 10 kt METAR EDDH 031550Z AUTO 29010KT 9999 SCT020 15/12 Q1023 NOSIG
17:20
M
15 °C 10 km+ 1,900 ft 290° 290° 8 kt METAR EDDH 031520Z AUTO 29008KT 260V320 9999 BKN019 BKN029 15/12 Q1023 NOSIG
16:50
M
16 °C 10 km+ 1,800 ft 290° 290° 9 kt METAR EDDH 031450Z AUTO 29009KT 260V320 9999 BKN018 16/12 Q1023 NOSIG
16:20
V
16 °C 10 km+ - 300° 300° 11 kt METAR EDDH 031420Z AUTO 30011KT 9999 VCSH SCT020 FEW///TCU 16/12 Q1023 NOSIG
15:50
V
16 °C 10 km+ - 290° 290° 12 kt METAR EDDH 031350Z AUTO 29012KT 9999 SCT020 SCT041 16/12 Q1023 NOSIG
15:20
M
16 °C 10 km+ 2,000 ft 300° 300° 12 kt METAR EDDH 031320Z AUTO 30012KT 9999 BKN020 BKN044 16/12 Q1023 TEMPO 30015G25KT
14:50
V
16 °C 10 km+ - 300° 300° 9 kt METAR EDDH 031250Z AUTO 30009KT 9999 FEW024 16/12 Q1023 TEMPO 30015G25KT
14:20
V
15 °C 10 km+ - 300° 300° 14 kt METAR EDDH 031220Z AUTO 30014KT 9999 VCSH FEW017 FEW///TCU 15/12 Q1023 TEMPO 30015G25KT
13:50
V
15 °C 10 km+ - 300° 300° 10 kt METAR EDDH 031150Z AUTO 30010KT 9999 VCSH FEW024 FEW///CB 15/12 Q1023 TEMPO 30015G25KT
13:20
V
16 °C 10 km+ - 290° 290° 13 kt METAR EDDH 031120Z AUTO 29013KT 9999 -SHRA FEW024 FEW///TCU 16/11 Q1023 RESHRA TEMPO 30015G25KT SHRA SCT015CB
12:50
V
16 °C 10 km+ 4,400 ft 300° 300° 15 kt METAR EDDH 031050Z AUTO 30015KT 270V330 9999 -SHRA SCT021 BKN044 FEW///TCU 16/11 Q1023 TEMPO 30015G25KT
12:20
V
16 °C 10 km+ 4,200 ft 300° 300° 10 kt METAR EDDH 031020Z AUTO 30010KT 260V330 9999 -SHRA FEW018 BKN042 FEW///TCU 16/12 Q1023 TEMPO 30015G25KT
11:50
V
15 °C 10 km+ 3,600 ft 290° 290° 11 kt METAR EDDH 030950Z AUTO 29011KT 250V310 9999 FEW016 BKN036 BKN043 15/12 Q1023 NOSIG
11:20
V
14 °C 10 km+ 3,500 ft 280° 280° 11 kt METAR EDDH 030920Z AUTO 28011KT 9999 SCT016 BKN035 BKN043 14/12 Q1023 NOSIG
10:50
V
14 °C 10 km+ 3,900 ft 280° 280° 11 kt METAR EDDH 030850Z AUTO 28011KT 250V310 9999 FEW015 BKN039 BKN045 14/11 Q1023 NOSIG
10:20
V
14 °C 10 km+ - 280° 280° 9 kt METAR EDDH 030820Z AUTO 28009KT CAVOK 14/11 Q1023 NOSIG
09:50
V
13 °C 10 km+ - 270° 270° 8 kt METAR EDDH 030750Z AUTO 27008KT 9999 FEW024 13/11 Q1023 NOSIG
09:20
V
12 °C 10 km+ - 270° 270° 8 kt METAR EDDH 030720Z AUTO 27008KT 9999 FEW027 SCT037 12/10 Q1022 NOSIG
08:50
V
11 °C 10 km+ 3,400 ft 260° 260° 7 kt METAR EDDH 030650Z AUTO 26007KT 9999 SCT022 SCT027 OVC034 11/10 Q1022 NOSIG
08:20
V
10 °C 10 km+ - 260° 260° 5 kt METAR EDDH 030620Z AUTO 26005KT 9999 SCT033 10/10 Q1022 BECMG 28010KT
07:50
V
10 °C 10 km+ - 270° 270° 6 kt METAR EDDH 030550Z AUTO 27006KT 9999 FEW023 10/09 Q1022 NOSIG
07:20
V
10 °C 10 km+ - 260° 260° 7 kt METAR EDDH 030520Z AUTO 26007KT CAVOK 10/09 Q1022 NOSIG
06:50
V
10 °C 10 km+ - 270° 270° 6 kt METAR EDDH 030450Z AUTO 27006KT 9999 FEW019 10/09 Q1022 NOSIG
06:20
V
9 °C 10 km+ - 260° 260° 4 kt METAR EDDH 030420Z AUTO 26004KT CAVOK 09/09 Q1022 NOSIG
05:50
V
9 °C 10 km+ - 250° 250° 4 kt METAR EDDH 030350Z AUTO 25004KT CAVOK 09/09 Q1021 NOSIG
05:20
V
10 °C 10 km+ - 260° 260° 4 kt METAR EDDH 030320Z AUTO 26004KT 230V290 9999 FEW021 10/09 Q1021 NOSIG
04:50
V
10 °C 10 km+ - 270° 270° 5 kt METAR EDDH 030250Z AUTO 27005KT CAVOK 10/09 Q1021 NOSIG
04:20
V
11 °C 10 km+ - 280° 280° 7 kt METAR EDDH 030220Z AUTO 28007KT 9999 FEW022 11/10 Q1021 NOSIG
03:50
V
11 °C 10 km+ - 260° 260° 6 kt METAR EDDH 030150Z AUTO 26006KT 9999 FEW036 SCT047 11/10 Q1020 NOSIG
03:20
V
11 °C 10 km+ 3,800 ft 270° 270° 5 kt METAR EDDH 030120Z AUTO 27005KT 9999 FEW023 BKN038 OVC045 11/10 Q1020 NOSIG
02:50
V
11 °C 10 km+ 3,900 ft 260° 260° 6 kt METAR EDDH 030050Z AUTO 26006KT 9999 -RA FEW021 BKN039 11/10 Q1020 NOSIG
02:20
V
11 °C 10 km+ 4,800 ft 270° 270° 5 kt METAR EDDH 030020Z AUTO 27005KT 9999 FEW023 SCT038 BKN048 11/10 Q1020 NOSIG
01:50
V
11 °C 10 km+ - 270° 270° 6 kt METAR EDDH 022350Z AUTO 27006KT 9999 FEW019 SCT024 11/10 Q1020 NOSIG
01:20
V
11 °C 10 km+ - 270° 270° 5 kt METAR EDDH 022320Z AUTO 27005KT 9999 FEW022 11/10 Q1019 NOSIG
00:50
V
11 °C 10 km+ - 270° 270° 7 kt METAR EDDH 022250Z AUTO 27007KT 9999 FEW021 11/10 Q1019 NOSIG
00:20
V
11 °C 10 km+ - 260° 260° 5 kt METAR EDDH 022220Z AUTO 26005KT 9999 FEW021 SCT038 11/10 Q1019 NOSIG

October 2, 2022

Time Code Weather Temp. Visibility Ceiling Wind METAR/SPECI
23:50
V
11 °C 10 km+ - 260° 260° 5 kt METAR EDDH 022150Z AUTO 26005KT 9999 FEW021 SCT043 11/10 Q1019 NOSIG
23:20
V
11 °C 10 km+ - 270° 270° 6 kt METAR EDDH 022120Z AUTO 27006KT CAVOK 11/10 Q1018 NOSIG
22:50
V
12 °C 10 km+ - 270° 270° 7 kt METAR EDDH 022050Z AUTO 27007KT 9999 FEW020 12/10 Q1018 NOSIG
22:20
V
12 °C 10 km+ - 280° 280° 6 kt METAR EDDH 022020Z AUTO 28006KT 9999 FEW032 12/10 Q1018 NOSIG
21:50
V
12 °C 10 km+ - 280° 280° 7 kt METAR EDDH 021950Z AUTO 28007KT 9999 VCSH FEW021 FEW///TCU 12/10 Q1018 NOSIG
21:20
V
12 °C 10 km+ - 270° 270° 6 kt METAR EDDH 021920Z AUTO 27006KT 9999 FEW022 12/10 Q1017 NOSIG
20:50
V
12 °C 10 km+ - 280° 280° 7 kt METAR EDDH 021850Z AUTO 28007KT CAVOK 12/10 Q1017 NOSIG
20:20
V
12 °C 10 km+ - 290° 290° 7 kt METAR EDDH 021820Z AUTO 29007KT CAVOK 12/10 Q1017 NOSIG
19:50
V
13 °C 10 km+ - 290° 290° 8 kt METAR EDDH 021750Z AUTO 29008KT CAVOK 13/10 Q1016 NOSIG
19:20
V
13 °C 10 km+ - 290° 290° 9 kt METAR EDDH 021720Z AUTO 29009KT CAVOK 13/10 Q1016 NOSIG
18:50
V
14 °C 10 km+ - 290° 290° 10 kt METAR EDDH 021650Z AUTO 29010KT CAVOK 14/10 Q1015 NOSIG
18:20
V
14 °C 10 km+ - 290° 290° 11 kt METAR EDDH 021620Z AUTO 29011KT CAVOK 14/10 Q1015 NOSIG
17:50
V
15 °C 10 km+ - 300° 300° 12 kt METAR EDDH 021550Z AUTO 30012KT 9999 FEW025 15/09 Q1015 NOSIG
17:20
V
15 °C 10 km+ - 300° 300° 15 kt METAR EDDH 021520Z AUTO 30015KT 9999 FEW027 15/09 Q1014 TEMPO 28015G25KT SHRA BKN015TCU
16:50
V
16 °C 10 km+ - 300° 300° 14 kt METAR EDDH 021450Z AUTO 30014KT 270V330 9999 FEW029 16/10 Q1014 TEMPO 28015G25KT SHRA BKN015TCU
16:20
V
16 °C 10 km+ - 290° 290° 13 kt METAR EDDH 021420Z AUTO 29013KT 9999 FEW031 16/10 Q1014 TEMPO 28015G25KT SHRA BKN015TCU
15:50
V
16 °C 10 km+ - 290° 290° 14 kt METAR EDDH 021350Z AUTO 29014KT 9999 FEW032 16/10 Q1013 TEMPO 28015G25KT SHRA BKN015TCU
15:20
V
15 °C 10 km+ - 280° 280° 12 kt METAR EDDH 021320Z AUTO 28012KT 9999 -SHRA FEW025 FEW///CB 15/11 Q1013 TEMPO 28015G25KT SHRA BKN015TCU
14:50
I
16 °C 4.2 km 4,900 ft 280° 280° 15 - 25 kt METAR EDDH 021250Z AUTO 28015G25KT 9999 4200 -SHRA SCT021 BKN049 FEW///TCU 16/12 Q1013 RESHRA TEMPO 28015G25KT SHRA BKN015TCU
Older data

We and third parties follow your internet behavior on our website with cookies. If you continue, we assume you agree with our cookie policy. Learn more